sensor_id;sensor_type;location;lat;lon;timestamp;temperature;humidity
21037;DHT22;10677;50.942;4.028;2023-11-21T00:00:15;10.80;99.90
21037;DHT22;10677;50.942;4.028;2023-11-21T00:02:41;10.80;99.90
21037;DHT22;10677;50.942;4.028;2023-11-21T00:05:08;10.70;99.90
21037;DHT22;10677;50.942;4.028;2023-11-21T00:07:35;10.70;99.90
21037;DHT22;10677;50.942;4.028;2023-11-21T00:10:01;10.70;99.90
21037;DHT22;10677;50.942;4.028;2023-11-21T00:12:28;10.70;99.90
21037;DHT22;10677;50.942;4.028;2023-11-21T00:14:54;10.70;99.90
21037;DHT22;10677;50.942;4.028;2023-11-21T00:17:20;10.70;99.90
21037;DHT22;10677;50.942;4.028;2023-11-21T00:19:46;10.70;99.90
21037;DHT22;10677;50.942;4.028;2023-11-21T00:22:11;10.70;99.90
21037;DHT22;10677;50.942;4.028;2023-11-21T00:24:37;10.70;99.90
21037;DHT22;10677;50.942;4.028;2023-11-21T00:27:03;10.70;99.90
21037;DHT22;10677;50.942;4.028;2023-11-21T00:29:28;10.80;99.90
21037;DHT22;10677;50.942;4.028;2023-11-21T00:31:54;10.80;99.90
21037;DHT22;10677;50.942;4.028;2023-11-21T00:34:20;11.00;99.90
21037;DHT22;10677;50.942;4.028;2023-11-21T00:36:45;11.00;99.90
21037;DHT22;10677;50.942;4.028;2023-11-21T00:39:11;11.00;99.90
21037;DHT22;10677;50.942;4.028;2023-11-21T00:41:37;10.90;99.90
21037;DHT22;10677;50.942;4.028;2023-11-21T00:44:03;11.10;99.90
21037;DHT22;10677;50.942;4.028;2023-11-21T00:46:29;11.20;99.90
21037;DHT22;10677;50.942;4.028;2023-11-21T00:48:55;11.20;99.90
21037;DHT22;10677;50.942;4.028;2023-11-21T00:51:21;11.10;99.90
21037;DHT22;10677;50.942;4.028;2023-11-21T00:53:47;11.10;99.90
21037;DHT22;10677;50.942;4.028;2023-11-21T00:56:13;11.30;99.90
21037;DHT22;10677;50.942;4.028;2023-11-21T00:58:39;11.30;99.90
21037;DHT22;10677;50.942;4.028;2023-11-21T01:01:09;11.20;99.90
21037;DHT22;10677;50.942;4.028;2023-11-21T01:03:35;11.20;99.90
21037;DHT22;10677;50.942;4.028;2023-11-21T01:06:01;11.20;99.90
21037;DHT22;10677;50.942;4.028;2023-11-21T01:08:26;11.10;99.90
21037;DHT22;10677;50.942;4.028;2023-11-21T01:10:52;11.10;99.90
21037;DHT22;10677;50.942;4.028;2023-11-21T01:13:18;11.10;99.90
21037;DHT22;10677;50.942;4.028;2023-11-21T01:15:43;11.00;99.90
21037;DHT22;10677;50.942;4.028;2023-11-21T01:18:09;11.00;99.90
21037;DHT22;10677;50.942;4.028;2023-11-21T01:20:35;10.90;99.90
21037;DHT22;10677;50.942;4.028;2023-11-21T01:23:00;11.00;99.90
21037;DHT22;10677;50.942;4.028;2023-11-21T01:25:26;11.00;99.90
21037;DHT22;10677;50.942;4.028;2023-11-21T01:27:52;11.10;99.90
21037;DHT22;10677;50.942;4.028;2023-11-21T01:30:18;11.20;99.90
21037;DHT22;10677;50.942;4.028;2023-11-21T01:32:45;11.20;99.90
21037;DHT22;10677;50.942;4.028;2023-11-21T01:35:10;11.20;99.90
21037;DHT22;10677;50.942;4.028;2023-11-21T01:37:37;11.20;99.90
21037;DHT22;10677;50.942;4.028;2023-11-21T01:40:03;11.30;99.90
21037;DHT22;10677;50.942;4.028;2023-11-21T01:42:34;11.40;99.90
21037;DHT22;10677;50.942;4.028;2023-11-21T01:45:00;11.30;99.90
21037;DHT22;10677;50.942;4.028;2023-11-21T01:47:31;11.30;99.90
21037;DHT22;10677;50.942;4.028;2023-11-21T01:49:58;11.30;99.90
21037;DHT22;10677;50.942;4.028;2023-11-21T01:52:24;11.20;99.90
21037;DHT22;10677;50.942;4.028;2023-11-21T01:54:50;11.10;99.90
21037;DHT22;10677;50.942;4.028;2023-11-21T01:57:16;11.20;99.90
21037;DHT22;10677;50.942;4.028;2023-11-21T01:59:42;11.20;99.90
21037;DHT22;10677;50.942;4.028;2023-11-21T02:02:09;11.20;99.90
21037;DHT22;10677;50.942;4.028;2023-11-21T02:04:36;11.20;99.90
21037;DHT22;10677;50.942;4.028;2023-11-21T02:07:02;11.40;99.90
21037;DHT22;10677;50.942;4.028;2023-11-21T02:09:31;11.40;99.90
21037;DHT22;10677;50.942;4.028;2023-11-21T02:11:57;11.40;99.90
21037;DHT22;10677;50.942;4.028;2023-11-21T02:14:26;11.40;99.90
21037;DHT22;10677;50.942;4.028;2023-11-21T02:16:53;11.40;99.90
21037;DHT22;10677;50.942;4.028;2023-11-21T02:19:20;11.40;99.90
21037;DHT22;10677;50.942;4.028;2023-11-21T02:21:56;11.30;99.90
21037;DHT22;10677;50.942;4.028;2023-11-21T02:24:23;11.30;99.90
21037;DHT22;10677;50.942;4.028;2023-11-21T02:26:49;11.30;99.90
21037;DHT22;10677;50.942;4.028;2023-11-21T02:29:18;11.30;99.90
21037;DHT22;10677;50.942;4.028;2023-11-21T02:31:48;11.20;99.90
21037;DHT22;10677;50.942;4.028;2023-11-21T02:34:17;11.30;99.90
21037;DHT22;10677;50.942;4.028;2023-11-21T02:36:44;11.30;99.90
21037;DHT22;10677;50.942;4.028;2023-11-21T02:39:10;11.30;99.90
21037;DHT22;10677;50.942;4.028;2023-11-21T02:41:39;11.30;99.90
21037;DHT22;10677;50.942;4.028;2023-11-21T02:44:06;11.20;99.90
21037;DHT22;10677;50.942;4.028;2023-11-21T02:46:33;11.20;99.90
21037;DHT22;10677;50.942;4.028;2023-11-21T02:49:03;11.20;99.90
21037;DHT22;10677;50.942;4.028;2023-11-21T02:51:29;11.20;99.90
21037;DHT22;10677;50.942;4.028;2023-11-21T02:53:55;11.30;99.90
21037;DHT22;10677;50.942;4.028;2023-11-21T02:56:25;11.30;99.90
21037;DHT22;10677;50.942;4.028;2023-11-21T02:58:52;11.30;99.90
21037;DHT22;10677;50.942;4.028;2023-11-21T03:01:18;11.30;99.90
21037;DHT22;10677;50.942;4.028;2023-11-21T03:03:44;11.30;99.90
21037;DHT22;10677;50.942;4.028;2023-11-21T03:06:09;11.30;99.90
21037;DHT22;10677;50.942;4.028;2023-11-21T03:08:35;11.30;99.90
21037;DHT22;10677;50.942;4.028;2023-11-21T03:11:01;11.30;99.90
21037;DHT22;10677;50.942;4.028;2023-11-21T03:13:29;11.30;99.90
21037;DHT22;10677;50.942;4.028;2023-11-21T03:15:54;11.20;99.90
21037;DHT22;10677;50.942;4.028;2023-11-21T03:18:21;11.20;99.90
21037;DHT22;10677;50.942;4.028;2023-11-21T03:20:48;11.10;99.90
21037;DHT22;10677;50.942;4.028;2023-11-21T03:23:13;11.10;99.90
21037;DHT22;10677;50.942;4.028;2023-11-21T03:25:40;11.10;99.90
21037;DHT22;10677;50.942;4.028;2023-11-21T03:28:06;11.20;99.90
21037;DHT22;10677;50.942;4.028;2023-11-21T03:30:33;11.20;99.90
21037;DHT22;10677;50.942;4.028;2023-11-21T03:32:59;11.30;99.90
21037;DHT22;10677;50.942;4.028;2023-11-21T03:35:25;11.40;99.90
21037;DHT22;10677;50.942;4.028;2023-11-21T03:37:51;11.40;99.90
21037;DHT22;10677;50.942;4.028;2023-11-21T03:40:17;11.40;99.90
21037;DHT22;10677;50.942;4.028;2023-11-21T03:42:43;11.40;99.90
21037;DHT22;10677;50.942;4.028;2023-11-21T03:45:09;11.30;99.90
21037;DHT22;10677;50.942;4.028;2023-11-21T03:47:34;11.30;99.90
21037;DHT22;10677;50.942;4.028;2023-11-21T03:50:00;11.40;99.90
21037;DHT22;10677;50.942;4.028;2023-11-21T03:52:26;11.40;99.90
21037;DHT22;10677;50.942;4.028;2023-11-21T03:54:52;11.40;99.90
21037;DHT22;10677;50.942;4.028;2023-11-21T03:57:18;11.40;99.90
21037;DHT22;10677;50.942;4.028;2023-11-21T03:59:43;11.40;99.90
21037;DHT22;10677;50.942;4.028;2023-11-21T04:02:09;11.40;99.90
21037;DHT22;10677;50.942;4.028;2023-11-21T04:04:35;11.30;99.90
21037;DHT22;10677;50.942;4.028;2023-11-21T04:07:01;11.30;99.90
21037;DHT22;10677;50.942;4.028;2023-11-21T04:09:27;11.30;99.90
21037;DHT22;10677;50.942;4.028;2023-11-21T04:11:53;11.20;99.90
21037;DHT22;10677;50.942;4.028;2023-11-21T04:14:20;11.10;99.90
21037;DHT22;10677;50.942;4.028;2023-11-21T04:16:46;11.20;99.90
21037;DHT22;10677;50.942;4.028;2023-11-21T04:19:11;11.20;99.90
21037;DHT22;10677;50.942;4.028;2023-11-21T04:21:40;11.30;99.90
21037;DHT22;10677;50.942;4.028;2023-11-21T04:24:06;11.40;99.90
21037;DHT22;10677;50.942;4.028;2023-11-21T04:26:32;11.30;99.90
21037;DHT22;10677;50.942;4.028;2023-11-21T04:28:58;11.40;99.90
21037;DHT22;10677;50.942;4.028;2023-11-21T04:31:24;11.40;99.90
21037;DHT22;10677;50.942;4.028;2023-11-21T04:33:49;11.40;99.90
21037;DHT22;10677;50.942;4.028;2023-11-21T04:36:15;11.50;99.90
21037;DHT22;10677;50.942;4.028;2023-11-21T04:38:40;11.50;99.90
21037;DHT22;10677;50.942;4.028;2023-11-21T04:41:07;11.50;99.90
21037;DHT22;10677;50.942;4.028;2023-11-21T04:43:32;11.50;99.90
21037;DHT22;10677;50.942;4.028;2023-11-21T04:45:58;11.40;99.90
21037;DHT22;10677;50.942;4.028;2023-11-21T04:48:24;11.40;99.90
21037;DHT22;10677;50.942;4.028;2023-11-21T04:50:50;11.30;99.90
21037;DHT22;10677;50.942;4.028;2023-11-21T04:53:17;11.40;99.90
21037;DHT22;10677;50.942;4.028;2023-11-21T04:55:43;11.40;99.90
21037;DHT22;10677;50.942;4.028;2023-11-21T04:58:09;11.50;99.90
21037;DHT22;10677;50.942;4.028;2023-11-21T05:00:35;11.60;99.90
21037;DHT22;10677;50.942;4.028;2023-11-21T05:03:02;11.60;99.90
21037;DHT22;10677;50.942;4.028;2023-11-21T05:05:28;11.60;99.90
21037;DHT22;10677;50.942;4.028;2023-11-21T05:07:55;11.70;99.90
21037;DHT22;10677;50.942;4.028;2023-11-21T05:10:21;11.70;99.90
21037;DHT22;10677;50.942;4.028;2023-11-21T05:12:48;11.70;99.90
21037;DHT22;10677;50.942;4.028;2023-11-21T05:15:16;11.80;99.90
21037;DHT22;10677;50.942;4.028;2023-11-21T05:17:46;11.90;99.90
21037;DHT22;10677;50.942;4.028;2023-11-21T05:20:14;11.90;99.90
21037;DHT22;10677;50.942;4.028;2023-11-21T05:22:43;12.00;99.90
21037;DHT22;10677;50.942;4.028;2023-11-21T05:25:09;11.80;99.90
21037;DHT22;10677;50.942;4.028;2023-11-21T05:27:35;11.80;99.90
21037;DHT22;10677;50.942;4.028;2023-11-21T05:30:02;11.70;99.90
21037;DHT22;10677;50.942;4.028;2023-11-21T05:32:31;11.60;99.90
21037;DHT22;10677;50.942;4.028;2023-11-21T05:34:56;11.60;99.90
21037;DHT22;10677;50.942;4.028;2023-11-21T05:37:22;11.60;99.90
21037;DHT22;10677;50.942;4.028;2023-11-21T05:39:48;11.70;99.90
21037;DHT22;10677;50.942;4.028;2023-11-21T05:42:14;11.70;99.90
21037;DHT22;10677;50.942;4.028;2023-11-21T05:44:43;11.80;99.90
21037;DHT22;10677;50.942;4.028;2023-11-21T05:47:09;11.90;99.90
21037;DHT22;10677;50.942;4.028;2023-11-21T05:49:36;11.90;99.90
21037;DHT22;10677;50.942;4.028;2023-11-21T05:52:02;11.90;99.90
21037;DHT22;10677;50.942;4.028;2023-11-21T05:54:28;11.90;99.90
21037;DHT22;10677;50.942;4.028;2023-11-21T05:56:54;11.80;99.90
21037;DHT22;10677;50.942;4.028;2023-11-21T05:59:19;11.90;99.90
21037;DHT22;10677;50.942;4.028;2023-11-21T06:01:46;11.90;99.90
21037;DHT22;10677;50.942;4.028;2023-11-21T06:04:12;11.90;99.90
21037;DHT22;10677;50.942;4.028;2023-11-21T06:06:38;11.90;99.90
21037;DHT22;10677;50.942;4.028;2023-11-21T06:09:04;12.00;99.90
21037;DHT22;10677;50.942;4.028;2023-11-21T06:11:31;12.00;99.90
21037;DHT22;10677;50.942;4.028;2023-11-21T06:13:57;12.00;99.90
21037;DHT22;10677;50.942;4.028;2023-11-21T06:16:23;11.90;99.90
21037;DHT22;10677;50.942;4.028;2023-11-21T06:18:49;11.90;99.90
21037;DHT22;10677;50.942;4.028;2023-11-21T06:21:15;11.90;99.90
21037;DHT22;10677;50.942;4.028;2023-11-21T06:23:42;12.00;99.90
21037;DHT22;10677;50.942;4.028;2023-11-21T06:26:08;12.10;99.90
21037;DHT22;10677;50.942;4.028;2023-11-21T06:28:35;12.00;99.90
21037;DHT22;10677;50.942;4.028;2023-11-21T06:31:01;12.10;99.90
21037;DHT22;10677;50.942;4.028;2023-11-21T06:33:31;12.00;99.90
21037;DHT22;10677;50.942;4.028;2023-11-21T06:35:57;11.90;99.90
21037;DHT22;10677;50.942;4.028;2023-11-21T06:38:23;12.00;99.90
21037;DHT22;10677;50.942;4.028;2023-11-21T06:40:48;12.10;99.90
21037;DHT22;10677;50.942;4.028;2023-11-21T06:43:14;12.10;99.90
21037;DHT22;10677;50.942;4.028;2023-11-21T06:45:40;12.20;99.90
21037;DHT22;10677;50.942;4.028;2023-11-21T06:48:06;12.10;99.90
21037;DHT22;10677;50.942;4.028;2023-11-21T06:50:32;12.00;99.90
21037;DHT22;10677;50.942;4.028;2023-11-21T06:52:57;11.90;99.90
21037;DHT22;10677;50.942;4.028;2023-11-21T06:55:23;11.80;99.90
21037;DHT22;10677;50.942;4.028;2023-11-21T06:57:50;11.90;99.90
21037;DHT22;10677;50.942;4.028;2023-11-21T07:00:17;11.90;99.90
21037;DHT22;10677;50.942;4.028;2023-11-21T07:02:44;11.80;99.90
21037;DHT22;10677;50.942;4.028;2023-11-21T07:05:10;11.40;99.90
21037;DHT22;10677;50.942;4.028;2023-11-21T07:07:36;11.10;99.90
21037;DHT22;10677;50.942;4.028;2023-11-21T07:10:03;11.00;99.90
21037;DHT22;10677;50.942;4.028;2023-11-21T07:12:32;11.20;99.90
21037;DHT22;10677;50.942;4.028;2023-11-21T07:14:58;11.20;99.90
21037;DHT22;10677;50.942;4.028;2023-11-21T07:17:23;10.80;99.90
21037;DHT22;10677;50.942;4.028;2023-11-21T07:19:49;10.80;99.90
21037;DHT22;10677;50.942;4.028;2023-11-21T07:22:16;10.80;99.90
21037;DHT22;10677;50.942;4.028;2023-11-21T07:24:48;10.70;99.90
21037;DHT22;10677;50.942;4.028;2023-11-21T07:27:16;10.70;99.90
21037;DHT22;10677;50.942;4.028;2023-11-21T07:29:42;10.70;99.90
21037;DHT22;10677;50.942;4.028;2023-11-21T07:32:08;10.80;99.90
21037;DHT22;10677;50.942;4.028;2023-11-21T07:34:35;11.10;99.90
21037;DHT22;10677;50.942;4.028;2023-11-21T07:37:02;11.00;99.90
21037;DHT22;10677;50.942;4.028;2023-11-21T07:39:28;11.00;99.90
21037;DHT22;10677;50.942;4.028;2023-11-21T07:41:55;10.80;99.90
21037;DHT22;10677;50.942;4.028;2023-11-21T07:44:24;11.00;99.90
21037;DHT22;10677;50.942;4.028;2023-11-21T07:46:50;11.10;99.90
21037;DHT22;10677;50.942;4.028;2023-11-21T07:49:15;11.00;99.90
21037;DHT22;10677;50.942;4.028;2023-11-21T07:51:43;10.90;99.90
21037;DHT22;10677;50.942;4.028;2023-11-21T07:54:09;11.00;99.90
21037;DHT22;10677;50.942;4.028;2023-11-21T07:56:35;11.20;99.90
21037;DHT22;10677;50.942;4.028;2023-11-21T07:59:01;11.20;99.90
21037;DHT22;10677;50.942;4.028;2023-11-21T08:01:27;11.20;99.90
21037;DHT22;10677;50.942;4.028;2023-11-21T08:03:54;11.40;99.90
21037;DHT22;10677;50.942;4.028;2023-11-21T08:06:23;11.60;99.90
21037;DHT22;10677;50.942;4.028;2023-11-21T08:08:49;11.70;99.90
21037;DHT22;10677;50.942;4.028;2023-11-21T08:11:15;11.80;99.90
21037;DHT22;10677;50.942;4.028;2023-11-21T08:13:42;11.60;99.90
21037;DHT22;10677;50.942;4.028;2023-11-21T08:16:08;11.80;99.90
21037;DHT22;10677;50.942;4.028;2023-11-21T08:18:33;11.90;99.90
21037;DHT22;10677;50.942;4.028;2023-11-21T08:21:12;11.70;99.90
21037;DHT22;10677;50.942;4.028;2023-11-21T08:23:40;11.50;99.90
21037;DHT22;10677;50.942;4.028;2023-11-21T08:26:07;11.30;99.90
21037;DHT22;10677;50.942;4.028;2023-11-21T08:28:34;11.40;99.90
21037;DHT22;10677;50.942;4.028;2023-11-21T08:31:01;11.50;99.90
21037;DHT22;10677;50.942;4.028;2023-11-21T08:33:28;11.40;99.90
21037;DHT22;10677;50.942;4.028;2023-11-21T08:35:54;11.40;99.90
21037;DHT22;10677;50.942;4.028;2023-11-21T08:38:21;11.60;99.90
21037;DHT22;10677;50.942;4.028;2023-11-21T08:40:47;11.60;99.90
21037;DHT22;10677;50.942;4.028;2023-11-21T08:43:13;11.30;99.90
21037;DHT22;10677;50.942;4.028;2023-11-21T08:45:41;11.30;99.90
21037;DHT22;10677;50.942;4.028;2023-11-21T08:48:07;11.20;99.90
21037;DHT22;10677;50.942;4.028;2023-11-21T08:50:34;11.20;99.90
21037;DHT22;10677;50.942;4.028;2023-11-21T08:52:59;11.40;99.90
21037;DHT22;10677;50.942;4.028;2023-11-21T08:55:26;11.40;99.90
21037;DHT22;10677;50.942;4.028;2023-11-21T08:57:54;11.40;99.90
21037;DHT22;10677;50.942;4.028;2023-11-21T09:00:20;11.30;99.90
21037;DHT22;10677;50.942;4.028;2023-11-21T09:02:47;11.30;99.90
21037;DHT22;10677;50.942;4.028;2023-11-21T09:05:14;11.50;99.90
21037;DHT22;10677;50.942;4.028;2023-11-21T09:07:41;11.50;99.90
21037;DHT22;10677;50.942;4.028;2023-11-21T09:10:07;11.40;99.90
21037;DHT22;10677;50.942;4.028;2023-11-21T09:12:35;11.20;99.90
21037;DHT22;10677;50.942;4.028;2023-11-21T09:15:03;11.10;99.90
21037;DHT22;10677;50.942;4.028;2023-11-21T09:17:30;11.10;99.90
21037;DHT22;10677;50.942;4.028;2023-11-21T09:19:56;11.00;99.90
21037;DHT22;10677;50.942;4.028;2023-11-21T09:22:22;10.90;99.90
21037;DHT22;10677;50.942;4.028;2023-11-21T09:24:50;10.90;99.90
21037;DHT22;10677;50.942;4.028;2023-11-21T09:27:16;10.90;99.90
21037;DHT22;10677;50.942;4.028;2023-11-21T09:29:43;10.90;99.90
21037;DHT22;10677;50.942;4.028;2023-11-21T09:32:09;11.00;99.90
21037;DHT22;10677;50.942;4.028;2023-11-21T09:34:38;11.00;99.90
21037;DHT22;10677;50.942;4.028;2023-11-21T09:37:04;11.10;99.90
21037;DHT22;10677;50.942;4.028;2023-11-21T09:39:33;11.10;99.90
21037;DHT22;10677;50.942;4.028;2023-11-21T09:42:08;11.10;99.90
21037;DHT22;10677;50.942;4.028;2023-11-21T09:47:05;11.20;99.90
21037;DHT22;10677;50.942;4.028;2023-11-21T09:49:38;11.20;99.90
21037;DHT22;10677;50.942;4.028;2023-11-21T09:52:09;11.20;99.90
21037;DHT22;10677;50.942;4.028;2023-11-21T09:54:38;11.10;99.90
21037;DHT22;10677;50.942;4.028;2023-11-21T09:57:05;11.10;99.90
21037;DHT22;10677;50.942;4.028;2023-11-21T09:59:31;11.20;99.90
21037;DHT22;10677;50.942;4.028;2023-11-21T10:01:58;11.20;99.90
21037;DHT22;10677;50.942;4.028;2023-11-21T10:04:27;11.30;99.90
21037;DHT22;10677;50.942;4.028;2023-11-21T10:06:54;11.40;99.90
21037;DHT22;10677;50.942;4.028;2023-11-21T10:09:21;11.40;99.90
21037;DHT22;10677;50.942;4.028;2023-11-21T10:11:49;11.40;99.90
21037;DHT22;10677;50.942;4.028;2023-11-21T10:14:19;11.40;99.90
21037;DHT22;10677;50.942;4.028;2023-11-21T10:16:48;11.50;99.90
21037;DHT22;10677;50.942;4.028;2023-11-21T10:19:14;11.50;99.90
21037;DHT22;10677;50.942;4.028;2023-11-21T10:21:41;11.60;99.90
21037;DHT22;10677;50.942;4.028;2023-11-21T10:24:07;11.70;99.90
21037;DHT22;10677;50.942;4.028;2023-11-21T10:26:34;11.80;99.90
21037;DHT22;10677;50.942;4.028;2023-11-21T10:29:01;11.90;99.90
21037;DHT22;10677;50.942;4.028;2023-11-21T10:31:30;12.00;99.90
21037;DHT22;10677;50.942;4.028;2023-11-21T10:34:17;12.00;99.90
21037;DHT22;10677;50.942;4.028;2023-11-21T10:36:44;12.00;99.90
21037;DHT22;10677;50.942;4.028;2023-11-21T10:39:17;12.10;99.90
21037;DHT22;10677;50.942;4.028;2023-11-21T10:41:48;12.20;99.90
21037;DHT22;10677;50.942;4.028;2023-11-21T10:44:15;12.20;99.90
21037;DHT22;10677;50.942;4.028;2023-11-21T10:46:50;12.30;99.90
21037;DHT22;10677;50.942;4.028;2023-11-21T10:49:23;12.40;99.90
21037;DHT22;10677;50.942;4.028;2023-11-21T10:51:50;12.60;99.90
21037;DHT22;10677;50.942;4.028;2023-11-21T10:54:25;12.60;99.90
21037;DHT22;10677;50.942;4.028;2023-11-21T10:56:56;12.70;99.90
21037;DHT22;10677;50.942;4.028;2023-11-21T10:59:23;12.50;99.90
21037;DHT22;10677;50.942;4.028;2023-11-21T11:01:51;12.40;99.90
21037;DHT22;10677;50.942;4.028;2023-11-21T11:04:19;12.50;99.90
21037;DHT22;10677;50.942;4.028;2023-11-21T11:06:54;12.40;99.90
21037;DHT22;10677;50.942;4.028;2023-11-21T11:09:21;12.30;99.90
21037;DHT22;10677;50.942;4.028;2023-11-21T11:11:47;12.20;99.90
21037;DHT22;10677;50.942;4.028;2023-11-21T11:14:14;12.10;99.90
21037;DHT22;10677;50.942;4.028;2023-11-21T11:16:41;12.00;99.90
21037;DHT22;10677;50.942;4.028;2023-11-21T11:19:10;12.00;99.90
21037;DHT22;10677;50.942;4.028;2023-11-21T11:24:36;11.90;99.90
21037;DHT22;10677;50.942;4.028;2023-11-21T11:36:37;12.10;99.90
21037;DHT22;10677;50.942;4.028;2023-11-21T11:39:36;12.20;99.90
21037;DHT22;10677;50.942;4.028;2023-11-21T11:42:08;12.30;99.90
21037;DHT22;10677;50.942;4.028;2023-11-21T11:47:16;12.50;99.90
21037;DHT22;10677;50.942;4.028;2023-11-21T11:50:01;12.60;99.90
21037;DHT22;10677;50.942;4.028;2023-11-21T11:55:07;12.40;99.90
21037;DHT22;10677;50.942;4.028;2023-11-21T11:57:35;12.30;99.90
21037;DHT22;10677;50.942;4.028;2023-11-21T12:02:50;12.30;99.90
21037;DHT22;10677;50.942;4.028;2023-11-21T12:05:22;12.30;99.90
21037;DHT22;10677;50.942;4.028;2023-11-21T12:07:53;12.20;99.90
21037;DHT22;10677;50.942;4.028;2023-11-21T12:10:27;12.20;99.90
21037;DHT22;10677;50.942;4.028;2023-11-21T12:12:54;12.20;99.90
21037;DHT22;10677;50.942;4.028;2023-11-21T12:15:21;12.10;99.90
21037;DHT22;10677;50.942;4.028;2023-11-21T12:17:48;12.00;99.90
21037;DHT22;10677;50.942;4.028;2023-11-21T12:20:16;12.00;99.90
21037;DHT22;10677;50.942;4.028;2023-11-21T12:22:44;12.00;99.90
21037;DHT22;10677;50.942;4.028;2023-11-21T12:25:16;12.00;99.90
21037;DHT22;10677;50.942;4.028;2023-11-21T12:27:46;12.00;99.90
21037;DHT22;10677;50.942;4.028;2023-11-21T12:30:13;12.00;99.90
21037;DHT22;10677;50.942;4.028;2023-11-21T12:32:40;12.10;99.90
21037;DHT22;10677;50.942;4.028;2023-11-21T12:35:08;12.10;99.90
21037;DHT22;10677;50.942;4.028;2023-11-21T12:37:36;12.10;99.90
21037;DHT22;10677;50.942;4.028;2023-11-21T12:40:02;12.10;99.90
21037;DHT22;10677;50.942;4.028;2023-11-21T12:42:28;12.00;99.90
21037;DHT22;10677;50.942;4.028;2023-11-21T12:47:50;12.00;99.90
21037;DHT22;10677;50.942;4.028;2023-11-21T12:50:23;12.00;99.90
21037;DHT22;10677;50.942;4.028;2023-11-21T12:52:58;12.00;99.90
21037;DHT22;10677;50.942;4.028;2023-11-21T12:55:24;11.90;99.90
21037;DHT22;10677;50.942;4.028;2023-11-21T12:57:52;11.90;99.90
21037;DHT22;10677;50.942;4.028;2023-11-21T13:00:34;12.00;99.90
21037;DHT22;10677;50.942;4.028;2023-11-21T13:03:04;12.00;99.90
21037;DHT22;10677;50.942;4.028;2023-11-21T13:05:34;12.00;99.90
21037;DHT22;10677;50.942;4.028;2023-11-21T13:08:04;12.00;99.90
21037;DHT22;10677;50.942;4.028;2023-11-21T13:10:33;12.00;99.90
21037;DHT22;10677;50.942;4.028;2023-11-21T13:13:02;11.90;99.90
21037;DHT22;10677;50.942;4.028;2023-11-21T13:15:31;11.90;99.90
21037;DHT22;10677;50.942;4.028;2023-11-21T13:18:00;11.90;99.90
21037;DHT22;10677;50.942;4.028;2023-11-21T13:20:26;11.80;99.90
21037;DHT22;10677;50.942;4.028;2023-11-21T13:22:58;11.80;99.90
21037;DHT22;10677;50.942;4.028;2023-11-21T13:25:25;11.70;99.90
21037;DHT22;10677;50.942;4.028;2023-11-21T13:27:58;11.70;99.90
21037;DHT22;10677;50.942;4.028;2023-11-21T13:30:27;11.60;99.90
21037;DHT22;10677;50.942;4.028;2023-11-21T13:33:08;11.60;99.90
21037;DHT22;10677;50.942;4.028;2023-11-21T13:35:36;11.40;99.90
21037;DHT22;10677;50.942;4.028;2023-11-21T13:38:15;11.40;99.90
21037;DHT22;10677;50.942;4.028;2023-11-21T13:40:50;11.40;99.90
21037;DHT22;10677;50.942;4.028;2023-11-21T13:43:19;11.30;99.90
21037;DHT22;10677;50.942;4.028;2023-11-21T13:45:48;11.30;99.90
21037;DHT22;10677;50.942;4.028;2023-11-21T13:48:18;11.30;99.90
21037;DHT22;10677;50.942;4.028;2023-11-21T13:50:54;11.20;99.90
21037;DHT22;10677;50.942;4.028;2023-11-21T13:53:38;11.20;99.90
21037;DHT22;10677;50.942;4.028;2023-11-21T13:56:07;11.30;99.90
21037;DHT22;10677;50.942;4.028;2023-11-21T13:58:33;11.30;99.90
21037;DHT22;10677;50.942;4.028;2023-11-21T14:01:14;11.30;99.90
21037;DHT22;10677;50.942;4.028;2023-11-21T14:04:03;11.30;99.90
21037;DHT22;10677;50.942;4.028;2023-11-21T14:06:42;11.30;99.90
21037;DHT22;10677;50.942;4.028;2023-11-21T14:09:23;11.20;99.90
21037;DHT22;10677;50.942;4.028;2023-11-21T14:11:59;11.30;99.90
21037;DHT22;10677;50.942;4.028;2023-11-21T14:14:27;11.30;99.90
21037;DHT22;10677;50.942;4.028;2023-11-21T14:16:56;11.30;99.90
21037;DHT22;10677;50.942;4.028;2023-11-21T14:19:24;11.30;99.90
21037;DHT22;10677;50.942;4.028;2023-11-21T14:21:55;11.30;99.90
21037;DHT22;10677;50.942;4.028;2023-11-21T14:24:21;11.30;99.90
21037;DHT22;10677;50.942;4.028;2023-11-21T14:26:49;11.30;99.90
21037;DHT22;10677;50.942;4.028;2023-11-21T14:29:19;11.30;99.90
21037;DHT22;10677;50.942;4.028;2023-11-21T14:31:49;11.30;99.90
21037;DHT22;10677;50.942;4.028;2023-11-21T14:34:22;11.20;99.90
21037;DHT22;10677;50.942;4.028;2023-11-21T14:36:47;11.20;99.90
21037;DHT22;10677;50.942;4.028;2023-11-21T14:39:14;11.20;99.90
21037;DHT22;10677;50.942;4.028;2023-11-21T14:41:51;11.20;99.90
21037;DHT22;10677;50.942;4.028;2023-11-21T14:44:18;11.20;99.90
21037;DHT22;10677;50.942;4.028;2023-11-21T14:46:44;11.20;99.90
21037;DHT22;10677;50.942;4.028;2023-11-21T14:49:12;11.20;99.90
21037;DHT22;10677;50.942;4.028;2023-11-21T14:51:52;11.20;99.90
21037;DHT22;10677;50.942;4.028;2023-11-21T14:54:51;11.20;99.90
21037;DHT22;10677;50.942;4.028;2023-11-21T14:57:28;11.20;99.90
21037;DHT22;10677;50.942;4.028;2023-11-21T14:59:54;11.20;99.90
21037;DHT22;10677;50.942;4.028;2023-11-21T15:02:23;11.20;99.90
21037;DHT22;10677;50.942;4.028;2023-11-21T15:05:09;11.10;99.90
21037;DHT22;10677;50.942;4.028;2023-11-21T15:07:40;11.10;99.90
21037;DHT22;10677;50.942;4.028;2023-11-21T15:10:07;11.10;99.90
21037;DHT22;10677;50.942;4.028;2023-11-21T15:12:40;11.00;99.90
21037;DHT22;10677;50.942;4.028;2023-11-21T15:15:06;11.00;99.90
21037;DHT22;10677;50.942;4.028;2023-11-21T15:17:36;11.00;99.90
21037;DHT22;10677;50.942;4.028;2023-11-21T15:20:03;11.00;99.90
21037;DHT22;10677;50.942;4.028;2023-11-21T15:22:32;11.00;99.90
21037;DHT22;10677;50.942;4.028;2023-11-21T15:24:58;11.00;99.90
21037;DHT22;10677;50.942;4.028;2023-11-21T15:27:24;11.00;99.90
21037;DHT22;10677;50.942;4.028;2023-11-21T15:29:50;11.00;99.90
21037;DHT22;10677;50.942;4.028;2023-11-21T15:32:16;11.00;99.90
21037;DHT22;10677;50.942;4.028;2023-11-21T15:34:41;11.00;99.90
21037;DHT22;10677;50.942;4.028;2023-11-21T15:37:08;11.00;99.90
21037;DHT22;10677;50.942;4.028;2023-11-21T15:39:37;11.00;99.90
21037;DHT22;10677;50.942;4.028;2023-11-21T15:42:04;11.00;99.90
21037;DHT22;10677;50.942;4.028;2023-11-21T15:44:32;11.00;99.90
21037;DHT22;10677;50.942;4.028;2023-11-21T15:46:59;11.00;99.90
21037;DHT22;10677;50.942;4.028;2023-11-21T15:49:25;11.00;99.90
21037;DHT22;10677;50.942;4.028;2023-11-21T15:51:53;10.90;99.90
21037;DHT22;10677;50.942;4.028;2023-11-21T15:54:20;10.90;99.90
21037;DHT22;10677;50.942;4.028;2023-11-21T15:56:50;10.90;99.90
21037;DHT22;10677;50.942;4.028;2023-11-21T15:59:26;10.90;99.90